<?xml version="1.0" encoding="utf-8"?>
<gpx xmlns:xsi="http://www.w3.org/2001/XMLSchema-instance" xmlns:xsd="http://www.w3.org/2001/XMLSchema" version="1.1" creator="Shapelink.com" xmlns="http://www.topografix.com/GPX/1/1" xmlns:gpxtpx="http://www.garmin.com/xmlschemas/TrackPointExtension/v1">
  <metadata>
    <name>Övrigt 1.83 km, 2020-06-04</name>
    <desc></desc>
    <author><name>Marian Moron</name></author> 
    <time>2020-06-04T19:36:29Z</time>
  </metadata>
  <trk>
    <name>Övrigt 1.83 km, 2020-06-04</name>
    <trkseg>
      <trkpt lat="51.22959696347" lon="4.457978223268">
        <ele>6.8</ele>
        <time>2020-06-04T19:36:29Z</time>
      </trkpt>
      <trkpt lat="51.229294795975" lon="4.458058018956">
        <ele>12.8</ele>
        <time>2020-06-04T19:36:57Z</time>
      </trkpt>
      <trkpt lat="51.229213491545" lon="4.458137730825">
        <ele>12.4</ele>
        <time>2020-06-04T19:37:11Z</time>
      </trkpt>
      <trkpt lat="51.228765562809" lon="4.458258765461">
        <ele>10.8</ele>
        <time>2020-06-04T19:37:43Z</time>
      </trkpt>
      <trkpt lat="51.228580322819" lon="4.458321042978">
        <ele>10.2</ele>
        <time>2020-06-04T19:37:57Z</time>
      </trkpt>
      <trkpt lat="51.228637990291" lon="4.458698396116">
        <ele>8.2</ele>
        <time>2020-06-04T19:38:29Z</time>
      </trkpt>
      <trkpt lat="51.228633966979" lon="4.459376324188">
        <ele>7.6</ele>
        <time>2020-06-04T19:39:03Z</time>
      </trkpt>
      <trkpt lat="51.228602702492" lon="4.459372636152">
        <ele>7.6</ele>
        <time>2020-06-04T19:39:06Z</time>
      </trkpt>
      <trkpt lat="51.228575796593" lon="4.459426364131">
        <ele>9.2</ele>
        <time>2020-06-04T19:39:30Z</time>
      </trkpt>
      <trkpt lat="51.228766736275" lon="4.460079817055">
        <ele>9</ele>
        <time>2020-06-04T19:40:08Z</time>
      </trkpt>
      <trkpt lat="51.228807975223" lon="4.460188278841">
        <ele>8.8</ele>
        <time>2020-06-04T19:40:14Z</time>
      </trkpt>
      <trkpt lat="51.228917442837" lon="4.460466055007">
        <ele>7.8</ele>
        <time>2020-06-04T19:40:28Z</time>
      </trkpt>
      <trkpt lat="51.228968069513" lon="4.46059320843">
        <ele>7.4</ele>
        <time>2020-06-04T19:40:39Z</time>
      </trkpt>
      <trkpt lat="51.229365371573" lon="4.460805521957">
        <ele>9.8</ele>
        <time>2020-06-04T19:41:19Z</time>
      </trkpt>
      <trkpt lat="51.229501912724" lon="4.460960419469">
        <ele>11.6</ele>
        <time>2020-06-04T19:41:56Z</time>
      </trkpt>
      <trkpt lat="51.229656642598" lon="4.461212882297">
        <ele>6.2</ele>
        <time>2020-06-04T19:42:20Z</time>
      </trkpt>
      <trkpt lat="51.229723781617" lon="4.461276752375">
        <ele>7.4</ele>
        <time>2020-06-04T19:42:29Z</time>
      </trkpt>
      <trkpt lat="51.229831069937" lon="4.461507506082">
        <ele>7</ele>
        <time>2020-06-04T19:42:48Z</time>
      </trkpt>
      <trkpt lat="51.229963839233" lon="4.46190916673">
        <ele>7.6</ele>
        <time>2020-06-04T19:43:14Z</time>
      </trkpt>
      <trkpt lat="51.230102643497" lon="4.462347456281">
        <ele>5.4</ele>
        <time>2020-06-04T19:43:48Z</time>
      </trkpt>
      <trkpt lat="51.230285871831" lon="4.463009374924">
        <ele>7</ele>
        <time>2020-06-04T19:44:31Z</time>
      </trkpt>
      <trkpt lat="51.230400200947" lon="4.463472223442">
        <ele>9.6</ele>
        <time>2020-06-04T19:45:07Z</time>
      </trkpt>
      <trkpt lat="51.230184450841" lon="4.464015705838">
        <ele>6</ele>
        <time>2020-06-04T19:45:45Z</time>
      </trkpt>
      <trkpt lat="51.229803074391" lon="4.46431225746">
        <ele>6.2</ele>
        <time>2020-06-04T19:46:28Z</time>
      </trkpt>
      <trkpt lat="51.229346512298" lon="4.464358106453">
        <ele>16.2</ele>
        <time>2020-06-04T19:47:04Z</time>
      </trkpt>
      <trkpt lat="51.229124811043" lon="4.464366572172">
        <ele>9.8</ele>
        <time>2020-06-04T19:47:46Z</time>
      </trkpt>
      <trkpt lat="51.229045685907" lon="4.464382749239">
        <ele>6.4</ele>
        <time>2020-06-04T19:48:01Z</time>
      </trkpt>
      <trkpt lat="51.228774028528" lon="4.464458521615">
        <ele>5.8</ele>
        <time>2020-06-04T19:48:25Z</time>
      </trkpt>
      <trkpt lat="51.228704710215" lon="4.464647282003">
        <ele>4.8</ele>
        <time>2020-06-04T19:48:52Z</time>
      </trkpt>
      <trkpt lat="51.228721138739" lon="4.464882813393">
        <ele>5.8</ele>
        <time>2020-06-04T19:49:11Z</time>
      </trkpt>
      <trkpt lat="51.228697920876" lon="4.46541447731">
        <ele>3.8</ele>
        <time>2020-06-04T19:49:44Z</time>
      </trkpt>
      <trkpt lat="51.228642432698" lon="4.46570113829">
        <ele>3.4</ele>
        <time>2020-06-04T19:50:04Z</time>
      </trkpt>
      <trkpt lat="51.228604714148" lon="4.465755033907">
        <ele>4.4</ele>
        <time>2020-06-04T19:50:09Z</time>
      </trkpt>
      <trkpt lat="51.228327357077" lon="4.466084777853">
        <ele>9.8</ele>
        <time>2020-06-04T19:50:40Z</time>
      </trkpt>
      <trkpt lat="51.227932234311" lon="4.466142110049">
        <ele>8.4</ele>
        <time>2020-06-04T19:51:16Z</time>
      </trkpt>
      <trkpt lat="51.227871046441" lon="4.466056111755">
        <ele>8</ele>
        <time>2020-06-04T19:51:21Z</time>
      </trkpt>
      <trkpt lat="51.227860485247" lon="4.465335016898">
        <ele>2.8</ele>
        <time>2020-06-04T19:51:58Z</time>
      </trkpt>
      <trkpt lat="51.227812876055" lon="4.464614341136">
        <ele>8.8</ele>
        <time>2020-06-04T19:52:32Z</time>
      </trkpt>
      <trkpt lat="51.227754035117" lon="4.464188289159">
        <ele>1.6</ele>
        <time>2020-06-04T19:52:54Z</time>
      </trkpt>
      <trkpt lat="51.227749341253" lon="4.464155683568">
        <ele>1.2</ele>
        <time>2020-06-04T19:52:56Z</time>
      </trkpt>
      <trkpt lat="51.227772140021" lon="4.463969605388">
        <ele>2</ele>
        <time>2020-06-04T19:53:11Z</time>
      </trkpt>
      <trkpt lat="51.227719585508" lon="4.463254629318">
        <ele>4.4</ele>
        <time>2020-06-04T19:53:45Z</time>
      </trkpt>
      <trkpt lat="51.227606513677" lon="4.462691365638">
        <ele>7</ele>
        <time>2020-06-04T19:54:18Z</time>
      </trkpt>
      <trkpt lat="51.227469134336" lon="4.461993656282">
        <ele>11</ele>
        <time>2020-06-04T19:54:54Z</time>
      </trkpt>
      <trkpt lat="51.22732630676" lon="4.461320254436">
        <ele>5.8</ele>
        <time>2020-06-04T19:55:26Z</time>
      </trkpt>
      <trkpt lat="51.227329743339" lon="4.461214558677">
        <ele>4.4</ele>
        <time>2020-06-04T19:55:35Z</time>
      </trkpt>
      <trkpt lat="51.227308956227" lon="4.460797475333">
        <ele>0</ele>
        <time>2020-06-04T19:56:13Z</time>
      </trkpt>
      <trkpt lat="51.227313650091" lon="4.460563201228">
        <ele>4.8</ele>
        <time>2020-06-04T19:56:37Z</time>
      </trkpt>
      <trkpt lat="51.227209463074" lon="4.459847470787">
        <ele>6.6</ele>
        <time>2020-06-04T19:57:11Z</time>
      </trkpt>
      <trkpt lat="51.227162524434" lon="4.459660973512">
        <ele>7.2</ele>
        <time>2020-06-04T19:57:21Z</time>
      </trkpt>
      <trkpt lat="51.227056241942" lon="4.459204579057">
        <ele>8</ele>
        <time>2020-06-04T19:57:53Z</time>
      </trkpt>
      <trkpt lat="51.227467877051" lon="4.458920265009">
        <ele>13</ele>
        <time>2020-06-04T19:58:33Z</time>
      </trkpt>
      <trkpt lat="51.227898287616" lon="4.458667802181">
        <ele>9.8</ele>
        <time>2020-06-04T19:59:08Z</time>
      </trkpt>
      <trkpt lat="51.228010688895" lon="4.458575182186">
        <ele>5.4</ele>
        <time>2020-06-04T19:59:19Z</time>
      </trkpt>
      <trkpt lat="51.228429197162" lon="4.458319618055">
        <ele>7.6</ele>
        <time>2020-06-04T19:59:54Z</time>
      </trkpt>
      <trkpt lat="51.228863798677" lon="4.458179807963">
        <ele>12.8</ele>
        <time>2020-06-04T20:00:27Z</time>
      </trkpt>
      <trkpt lat="51.228981229096" lon="4.458158182661">
        <ele>18.8</ele>
        <time>2020-06-04T20:00:54Z</time>
      </trkpt>
      <trkpt lat="51.229422536131" lon="4.457987443358">
        <ele>13.4</ele>
        <time>2020-06-04T20:01:30Z</time>
      </trkpt>
      <trkpt lat="51.229495961575" lon="4.457968416445">
        <ele>13.6</ele>
        <time>2020-06-04T20:01:45Z</time>
      </trkpt>
    </trkseg>
  </trk>
</gpx>